sensor_id;sensor_type;location;lat;lon;timestamp;P1;durP1;ratioP1;P2;durP2;ratioP2
30553;SDS011;17335;50.720;7.452;2023-12-14T00:00:17;10.48;;;4.00;;
30553;SDS011;17335;50.720;7.452;2023-12-14T00:02:44;7.15;;;3.80;;
30553;SDS011;17335;50.720;7.452;2023-12-14T00:05:11;12.63;;;4.63;;
30553;SDS011;17335;50.720;7.452;2023-12-14T00:07:38;12.82;;;4.63;;
30553;SDS011;17335;50.720;7.452;2023-12-14T00:10:04;12.10;;;5.65;;
30553;SDS011;17335;50.720;7.452;2023-12-14T00:12:32;13.57;;;6.28;;
30553;SDS011;17335;50.720;7.452;2023-12-14T00:14:58;15.43;;;5.82;;
30553;SDS011;17335;50.720;7.452;2023-12-14T00:17:28;12.20;;;4.68;;
30553;SDS011;17335;50.720;7.452;2023-12-14T00:19:54;10.60;;;5.25;;
30553;SDS011;17335;50.720;7.452;2023-12-14T00:22:21;14.13;;;4.55;;
30553;SDS011;17335;50.720;7.452;2023-12-14T00:24:48;10.50;;;4.43;;
30553;SDS011;17335;50.720;7.452;2023-12-14T00:27:14;14.27;;;4.72;;
30553;SDS011;17335;50.720;7.452;2023-12-14T00:29:41;15.60;;;7.40;;
30553;SDS011;17335;50.720;7.452;2023-12-14T00:32:07;14.30;;;7.00;;
30553;SDS011;17335;50.720;7.452;2023-12-14T00:34:34;18.00;;;5.72;;
30553;SDS011;17335;50.720;7.452;2023-12-14T00:37:02;9.30;;;4.38;;
30553;SDS011;17335;50.720;7.452;2023-12-14T00:39:29;11.77;;;5.72;;
30553;SDS011;17335;50.720;7.452;2023-12-14T00:41:55;12.77;;;4.95;;
30553;SDS011;17335;50.720;7.452;2023-12-14T00:44:22;15.00;;;5.13;;
30553;SDS011;17335;50.720;7.452;2023-12-14T00:46:49;12.05;;;5.25;;
30553;SDS011;17335;50.720;7.452;2023-12-14T00:49:15;11.98;;;5.50;;
30553;SDS011;17335;50.720;7.452;2023-12-14T00:51:44;13.00;;;5.93;;
30553;SDS011;17335;50.720;7.452;2023-12-14T00:54:10;12.95;;;5.40;;
30553;SDS011;17335;50.720;7.452;2023-12-14T00:56:37;13.70;;;6.18;;
30553;SDS011;17335;50.720;7.452;2023-12-14T00:59:03;17.08;;;6.88;;
30553;SDS011;17335;50.720;7.452;2023-12-14T01:01:30;15.00;;;6.93;;
30553;SDS011;17335;50.720;7.452;2023-12-14T01:03:57;19.50;;;8.00;;
30553;SDS011;17335;50.720;7.452;2023-12-14T01:06:25;18.15;;;8.00;;
30553;SDS011;17335;50.720;7.452;2023-12-14T01:08:52;11.98;;;6.45;;
30553;SDS011;17335;50.720;7.452;2023-12-14T01:11:18;13.15;;;5.93;;
30553;SDS011;17335;50.720;7.452;2023-12-14T01:13:45;15.88;;;6.45;;
30553;SDS011;17335;50.720;7.452;2023-12-14T01:16:11;11.65;;;5.78;;
30553;SDS011;17335;50.720;7.452;2023-12-14T01:18:40;12.88;;;6.45;;
30553;SDS011;17335;50.720;7.452;2023-12-14T01:21:07;13.88;;;6.90;;
30553;SDS011;17335;50.720;7.452;2023-12-14T01:23:33;15.40;;;7.18;;
30553;SDS011;17335;50.720;7.452;2023-12-14T01:26:00;20.65;;;9.15;;
30553;SDS011;17335;50.720;7.452;2023-12-14T01:28:26;13.68;;;6.60;;
30553;SDS011;17335;50.720;7.452;2023-12-14T01:30:53;21.65;;;7.72;;
30553;SDS011;17335;50.720;7.452;2023-12-14T01:33:20;15.73;;;7.10;;
30553;SDS011;17335;50.720;7.452;2023-12-14T01:35:46;17.65;;;7.07;;
30553;SDS011;17335;50.720;7.452;2023-12-14T01:38:13;14.18;;;6.80;;
30553;SDS011;17335;50.720;7.452;2023-12-14T01:40:39;14.88;;;7.93;;
30553;SDS011;17335;50.720;7.452;2023-12-14T01:43:07;14.98;;;6.88;;
30553;SDS011;17335;50.720;7.452;2023-12-14T01:45:39;13.90;;;7.43;;
30553;SDS011;17335;50.720;7.452;2023-12-14T01:48:05;13.95;;;6.75;;
30553;SDS011;17335;50.720;7.452;2023-12-14T01:50:32;16.40;;;6.93;;
30553;SDS011;17335;50.720;7.452;2023-12-14T01:52:59;16.33;;;7.13;;
30553;SDS011;17335;50.720;7.452;2023-12-14T01:55:26;18.42;;;7.90;;
30553;SDS011;17335;50.720;7.452;2023-12-14T01:57:53;15.30;;;6.75;;
30553;SDS011;17335;50.720;7.452;2023-12-14T02:00:23;15.13;;;7.50;;
30553;SDS011;17335;50.720;7.452;2023-12-14T02:03:00;17.15;;;7.53;;
30553;SDS011;17335;50.720;7.452;2023-12-14T02:05:27;21.23;;;8.05;;
30553;SDS011;17335;50.720;7.452;2023-12-14T02:07:54;12.43;;;6.43;;
30553;SDS011;17335;50.720;7.452;2023-12-14T02:10:20;20.45;;;7.63;;
30553;SDS011;17335;50.720;7.452;2023-12-14T02:12:47;18.42;;;7.93;;
30553;SDS011;17335;50.720;7.452;2023-12-14T02:15:13;12.50;;;6.93;;
30553;SDS011;17335;50.720;7.452;2023-12-14T02:17:40;17.25;;;7.35;;
30553;SDS011;17335;50.720;7.452;2023-12-14T02:20:07;15.90;;;7.40;;
30553;SDS011;17335;50.720;7.452;2023-12-14T02:22:55;13.82;;;7.35;;
30553;SDS011;17335;50.720;7.452;2023-12-14T02:25:22;14.43;;;6.75;;
30553;SDS011;17335;50.720;7.452;2023-12-14T02:27:50;12.75;;;6.53;;
30553;SDS011;17335;50.720;7.452;2023-12-14T02:30:20;16.17;;;7.75;;
30553;SDS011;17335;50.720;7.452;2023-12-14T02:32:46;17.63;;;7.15;;
30553;SDS011;17335;50.720;7.452;2023-12-14T02:35:13;18.80;;;7.13;;
30553;SDS011;17335;50.720;7.452;2023-12-14T02:37:40;11.70;;;7.22;;
30553;SDS011;17335;50.720;7.452;2023-12-14T02:40:07;13.35;;;6.53;;
30553;SDS011;17335;50.720;7.452;2023-12-14T02:42:34;16.13;;;6.47;;
30553;SDS011;17335;50.720;7.452;2023-12-14T02:45:01;14.70;;;6.75;;
30553;SDS011;17335;50.720;7.452;2023-12-14T02:47:29;18.35;;;6.55;;
30553;SDS011;17335;50.720;7.452;2023-12-14T02:49:56;17.50;;;7.15;;
30553;SDS011;17335;50.720;7.452;2023-12-14T02:52:23;19.88;;;7.68;;
30553;SDS011;17335;50.720;7.452;2023-12-14T02:54:49;18.92;;;7.75;;
30553;SDS011;17335;50.720;7.452;2023-12-14T02:57:16;14.10;;;6.47;;
30553;SDS011;17335;50.720;7.452;2023-12-14T02:59:43;15.20;;;5.82;;
30553;SDS011;17335;50.720;7.452;2023-12-14T03:02:10;17.10;;;6.38;;
30553;SDS011;17335;50.720;7.452;2023-12-14T03:04:37;14.43;;;6.05;;
30553;SDS011;17335;50.720;7.452;2023-12-14T03:07:06;15.07;;;6.30;;
30553;SDS011;17335;50.720;7.452;2023-12-14T03:09:33;14.13;;;6.03;;
30553;SDS011;17335;50.720;7.452;2023-12-14T03:12:00;15.70;;;6.68;;
30553;SDS011;17335;50.720;7.452;2023-12-14T03:14:31;12.27;;;5.47;;
30553;SDS011;17335;50.720;7.452;2023-12-14T03:16:58;14.13;;;6.20;;
30553;SDS011;17335;50.720;7.452;2023-12-14T03:19:25;12.20;;;6.88;;
30553;SDS011;17335;50.720;7.452;2023-12-14T03:21:52;20.77;;;7.40;;
30553;SDS011;17335;50.720;7.452;2023-12-14T03:24:19;29.65;;;8.40;;
30553;SDS011;17335;50.720;7.452;2023-12-14T03:26:45;22.23;;;7.90;;
30553;SDS011;17335;50.720;7.452;2023-12-14T03:29:12;21.30;;;9.05;;
30553;SDS011;17335;50.720;7.452;2023-12-14T03:31:39;30.48;;;10.57;;
30553;SDS011;17335;50.720;7.452;2023-12-14T03:34:06;28.60;;;8.85;;
30553;SDS011;17335;50.720;7.452;2023-12-14T03:36:32;21.95;;;7.47;;
30553;SDS011;17335;50.720;7.452;2023-12-14T03:38:59;27.00;;;7.90;;
30553;SDS011;17335;50.720;7.452;2023-12-14T03:41:25;27.38;;;7.80;;
30553;SDS011;17335;50.720;7.452;2023-12-14T03:43:52;30.77;;;8.38;;
30553;SDS011;17335;50.720;7.452;2023-12-14T03:46:19;30.63;;;8.90;;
30553;SDS011;17335;50.720;7.452;2023-12-14T03:48:45;35.15;;;9.75;;
30553;SDS011;17335;50.720;7.452;2023-12-14T03:51:12;25.83;;;7.97;;
30553;SDS011;17335;50.720;7.452;2023-12-14T03:53:39;25.52;;;8.77;;
30553;SDS011;17335;50.720;7.452;2023-12-14T03:56:06;26.67;;;8.93;;
30553;SDS011;17335;50.720;7.452;2023-12-14T03:58:33;37.28;;;10.80;;
30553;SDS011;17335;50.720;7.452;2023-12-14T04:01:00;23.77;;;10.18;;
30553;SDS011;17335;50.720;7.452;2023-12-14T04:03:26;42.10;;;11.27;;
30553;SDS011;17335;50.720;7.452;2023-12-14T04:05:53;43.78;;;10.05;;
30553;SDS011;17335;50.720;7.452;2023-12-14T04:08:19;32.72;;;10.23;;
30553;SDS011;17335;50.720;7.452;2023-12-14T04:10:46;30.30;;;9.45;;
30553;SDS011;17335;50.720;7.452;2023-12-14T04:13:13;28.08;;;10.73;;
30553;SDS011;17335;50.720;7.452;2023-12-14T04:15:39;31.77;;;11.45;;
30553;SDS011;17335;50.720;7.452;2023-12-14T04:18:07;34.03;;;10.70;;
30553;SDS011;17335;50.720;7.452;2023-12-14T04:20:34;33.65;;;10.70;;
30553;SDS011;17335;50.720;7.452;2023-12-14T04:23:01;27.88;;;9.23;;
30553;SDS011;17335;50.720;7.452;2023-12-14T04:25:27;23.40;;;9.10;;
30553;SDS011;17335;50.720;7.452;2023-12-14T04:27:54;22.25;;;10.10;;
30553;SDS011;17335;50.720;7.452;2023-12-14T04:30:20;27.17;;;9.68;;
30553;SDS011;17335;50.720;7.452;2023-12-14T04:32:47;31.25;;;10.63;;
30553;SDS011;17335;50.720;7.452;2023-12-14T04:35:14;36.53;;;10.68;;
30553;SDS011;17335;50.720;7.452;2023-12-14T04:37:41;36.30;;;11.15;;
30553;SDS011;17335;50.720;7.452;2023-12-14T04:40:07;28.30;;;10.38;;
30553;SDS011;17335;50.720;7.452;2023-12-14T04:42:34;31.80;;;11.73;;
30553;SDS011;17335;50.720;7.452;2023-12-14T04:45:02;40.30;;;10.32;;
30553;SDS011;17335;50.720;7.452;2023-12-14T04:47:29;32.85;;;10.20;;
30553;SDS011;17335;50.720;7.452;2023-12-14T04:49:55;39.47;;;11.38;;
30553;SDS011;17335;50.720;7.452;2023-12-14T04:52:22;26.65;;;10.20;;
30553;SDS011;17335;50.720;7.452;2023-12-14T04:54:48;28.20;;;11.00;;
30553;SDS011;17335;50.720;7.452;2023-12-14T04:57:15;38.50;;;10.80;;
30553;SDS011;17335;50.720;7.452;2023-12-14T04:59:42;36.80;;;11.85;;
30553;SDS011;17335;50.720;7.452;2023-12-14T05:02:08;35.33;;;12.68;;
30553;SDS011;17335;50.720;7.452;2023-12-14T05:04:35;29.45;;;11.25;;
30553;SDS011;17335;50.720;7.452;2023-12-14T05:07:02;30.73;;;10.57;;
30553;SDS011;17335;50.720;7.452;2023-12-14T05:09:28;33.05;;;10.20;;
30553;SDS011;17335;50.720;7.452;2023-12-14T05:11:55;40.33;;;11.02;;
30553;SDS011;17335;50.720;7.452;2023-12-14T05:14:22;45.22;;;11.50;;
30553;SDS011;17335;50.720;7.452;2023-12-14T05:16:49;53.75;;;11.63;;
30553;SDS011;17335;50.720;7.452;2023-12-14T05:19:16;38.33;;;11.57;;
30553;SDS011;17335;50.720;7.452;2023-12-14T05:21:42;41.83;;;11.40;;
30553;SDS011;17335;50.720;7.452;2023-12-14T05:24:09;33.15;;;11.50;;
30553;SDS011;17335;50.720;7.452;2023-12-14T05:26:35;30.63;;;10.05;;
30553;SDS011;17335;50.720;7.452;2023-12-14T05:29:02;43.40;;;10.80;;
30553;SDS011;17335;50.720;7.452;2023-12-14T05:31:29;40.40;;;11.98;;
30553;SDS011;17335;50.720;7.452;2023-12-14T05:33:55;37.50;;;10.73;;
30553;SDS011;17335;50.720;7.452;2023-12-14T05:36:22;38.58;;;10.90;;
30553;SDS011;17335;50.720;7.452;2023-12-14T05:38:48;34.10;;;10.50;;
30553;SDS011;17335;50.720;7.452;2023-12-14T05:41:15;36.17;;;11.02;;
30553;SDS011;17335;50.720;7.452;2023-12-14T05:43:42;35.00;;;10.68;;
30553;SDS011;17335;50.720;7.452;2023-12-14T05:46:08;27.70;;;10.10;;
30553;SDS011;17335;50.720;7.452;2023-12-14T05:48:37;32.13;;;10.48;;
30553;SDS011;17335;50.720;7.452;2023-12-14T05:51:04;26.13;;;9.27;;
30553;SDS011;17335;50.720;7.452;2023-12-14T05:53:31;37.95;;;10.85;;
30553;SDS011;17335;50.720;7.452;2023-12-14T05:55:58;28.40;;;10.00;;
30553;SDS011;17335;50.720;7.452;2023-12-14T05:58:25;27.27;;;8.80;;
30553;SDS011;17335;50.720;7.452;2023-12-14T06:00:52;29.00;;;10.10;;
30553;SDS011;17335;50.720;7.452;2023-12-14T06:03:19;28.08;;;10.73;;
30553;SDS011;17335;50.720;7.452;2023-12-14T06:05:45;24.60;;;9.60;;
30553;SDS011;17335;50.720;7.452;2023-12-14T06:08:12;26.63;;;9.50;;
30553;SDS011;17335;50.720;7.452;2023-12-14T06:10:39;24.23;;;8.20;;
30553;SDS011;17335;50.720;7.452;2023-12-14T06:13:05;24.55;;;8.25;;
30553;SDS011;17335;50.720;7.452;2023-12-14T06:15:32;20.90;;;7.82;;
30553;SDS011;17335;50.720;7.452;2023-12-14T06:17:58;20.00;;;7.07;;
30553;SDS011;17335;50.720;7.452;2023-12-14T06:20:25;16.30;;;7.30;;
30553;SDS011;17335;50.720;7.452;2023-12-14T06:22:52;19.00;;;6.93;;
30553;SDS011;17335;50.720;7.452;2023-12-14T06:25:19;20.08;;;7.55;;
30553;SDS011;17335;50.720;7.452;2023-12-14T06:27:45;19.98;;;6.18;;
30553;SDS011;17335;50.720;7.452;2023-12-14T06:30:12;16.38;;;6.22;;
30553;SDS011;17335;50.720;7.452;2023-12-14T06:32:39;15.75;;;6.15;;
30553;SDS011;17335;50.720;7.452;2023-12-14T06:35:06;18.92;;;5.93;;
30553;SDS011;17335;50.720;7.452;2023-12-14T06:37:33;13.25;;;5.47;;
30553;SDS011;17335;50.720;7.452;2023-12-14T06:39:59;11.55;;;4.60;;
30553;SDS011;17335;50.720;7.452;2023-12-14T06:42:29;13.43;;;4.90;;
30553;SDS011;17335;50.720;7.452;2023-12-14T06:44:57;10.18;;;4.78;;
30553;SDS011;17335;50.720;7.452;2023-12-14T06:47:23;13.25;;;5.40;;
30553;SDS011;17335;50.720;7.452;2023-12-14T06:49:50;11.45;;;4.78;;
30553;SDS011;17335;50.720;7.452;2023-12-14T06:52:17;12.93;;;4.88;;
30553;SDS011;17335;50.720;7.452;2023-12-14T06:54:43;15.65;;;5.13;;
30553;SDS011;17335;50.720;7.452;2023-12-14T06:57:10;12.68;;;5.00;;
30553;SDS011;17335;50.720;7.452;2023-12-14T06:59:36;13.45;;;4.93;;
30553;SDS011;17335;50.720;7.452;2023-12-14T07:02:03;14.65;;;6.05;;
30553;SDS011;17335;50.720;7.452;2023-12-14T07:04:30;11.82;;;5.00;;
30553;SDS011;17335;50.720;7.452;2023-12-14T07:06:56;15.30;;;4.60;;
30553;SDS011;17335;50.720;7.452;2023-12-14T07:09:23;13.90;;;5.50;;
30553;SDS011;17335;50.720;7.452;2023-12-14T07:11:49;11.85;;;5.13;;
30553;SDS011;17335;50.720;7.452;2023-12-14T07:14:16;12.05;;;4.75;;
30553;SDS011;17335;50.720;7.452;2023-12-14T07:16:42;13.20;;;4.70;;
30553;SDS011;17335;50.720;7.452;2023-12-14T07:19:09;20.27;;;5.47;;
30553;SDS011;17335;50.720;7.452;2023-12-14T07:21:37;11.05;;;4.65;;
30553;SDS011;17335;50.720;7.452;2023-12-14T07:24:04;11.15;;;4.93;;
30553;SDS011;17335;50.720;7.452;2023-12-14T07:26:31;12.55;;;5.05;;
30553;SDS011;17335;50.720;7.452;2023-12-14T07:28:57;15.07;;;5.15;;
30553;SDS011;17335;50.720;7.452;2023-12-14T07:31:24;13.55;;;5.57;;
30553;SDS011;17335;50.720;7.452;2023-12-14T07:33:51;15.80;;;4.65;;
30553;SDS011;17335;50.720;7.452;2023-12-14T07:36:17;11.70;;;4.97;;
30553;SDS011;17335;50.720;7.452;2023-12-14T07:38:44;14.00;;;5.28;;
30553;SDS011;17335;50.720;7.452;2023-12-14T07:41:11;11.90;;;4.40;;
30553;SDS011;17335;50.720;7.452;2023-12-14T07:43:37;13.48;;;5.47;;
30553;SDS011;17335;50.720;7.452;2023-12-14T07:46:04;13.63;;;5.53;;
30553;SDS011;17335;50.720;7.452;2023-12-14T07:48:32;15.52;;;5.07;;
30553;SDS011;17335;50.720;7.452;2023-12-14T07:50:58;17.25;;;5.95;;
30553;SDS011;17335;50.720;7.452;2023-12-14T07:53:25;14.43;;;4.30;;
30553;SDS011;17335;50.720;7.452;2023-12-14T07:55:51;12.32;;;5.07;;
30553;SDS011;17335;50.720;7.452;2023-12-14T07:58:18;15.70;;;5.35;;
30553;SDS011;17335;50.720;7.452;2023-12-14T08:00:44;15.95;;;5.68;;
30553;SDS011;17335;50.720;7.452;2023-12-14T08:06:58;13.70;;;5.03;;
30553;SDS011;17335;50.720;7.452;2023-12-14T08:09:25;13.02;;;5.60;;
30553;SDS011;17335;50.720;7.452;2023-12-14T08:15:38;14.77;;;6.00;;
30553;SDS011;17335;50.720;7.452;2023-12-14T08:18:05;13.73;;;5.10;;
30553;SDS011;17335;50.720;7.452;2023-12-14T08:24:18;18.20;;;5.47;;
30553;SDS011;17335;50.720;7.452;2023-12-14T08:26:45;12.60;;;4.75;;
30553;SDS011;17335;50.720;7.452;2023-12-14T08:29:11;16.05;;;5.88;;
30553;SDS011;17335;50.720;7.452;2023-12-14T08:31:38;16.88;;;4.85;;
30553;SDS011;17335;50.720;7.452;2023-12-14T08:34:17;12.55;;;4.78;;
30553;SDS011;17335;50.720;7.452;2023-12-14T08:36:44;18.50;;;6.00;;
30553;SDS011;17335;50.720;7.452;2023-12-14T08:39:11;16.27;;;5.90;;
30553;SDS011;17335;50.720;7.452;2023-12-14T08:41:40;23.15;;;8.25;;
30553;SDS011;17335;50.720;7.452;2023-12-14T08:44:10;23.10;;;8.15;;
30553;SDS011;17335;50.720;7.452;2023-12-14T08:46:44;31.42;;;9.30;;
30553;SDS011;17335;50.720;7.452;2023-12-14T08:49:12;25.85;;;9.57;;
30553;SDS011;17335;50.720;7.452;2023-12-14T08:51:39;23.25;;;8.82;;
30553;SDS011;17335;50.720;7.452;2023-12-14T08:54:06;27.77;;;9.48;;
30553;SDS011;17335;50.720;7.452;2023-12-14T08:56:33;30.38;;;9.50;;
30553;SDS011;17335;50.720;7.452;2023-12-14T08:59:00;33.22;;;9.63;;
30553;SDS011;17335;50.720;7.452;2023-12-14T09:01:30;37.35;;;10.65;;
30553;SDS011;17335;50.720;7.452;2023-12-14T09:03:56;29.17;;;9.55;;
30553;SDS011;17335;50.720;7.452;2023-12-14T09:06:23;29.58;;;10.73;;
30553;SDS011;17335;50.720;7.452;2023-12-14T09:08:49;30.05;;;11.10;;
30553;SDS011;17335;50.720;7.452;2023-12-14T09:11:16;28.52;;;8.90;;
30553;SDS011;17335;50.720;7.452;2023-12-14T09:13:43;27.40;;;9.75;;
30553;SDS011;17335;50.720;7.452;2023-12-14T09:16:10;35.92;;;9.10;;
30553;SDS011;17335;50.720;7.452;2023-12-14T09:18:36;28.10;;;9.27;;
30553;SDS011;17335;50.720;7.452;2023-12-14T09:21:03;26.67;;;9.27;;
30553;SDS011;17335;50.720;7.452;2023-12-14T09:23:30;30.52;;;9.30;;
30553;SDS011;17335;50.720;7.452;2023-12-14T09:25:57;28.75;;;9.00;;
30553;SDS011;17335;50.720;7.452;2023-12-14T09:28:25;23.88;;;8.43;;
30553;SDS011;17335;50.720;7.452;2023-12-14T09:30:52;28.83;;;9.18;;
30553;SDS011;17335;50.720;7.452;2023-12-14T09:33:19;23.88;;;8.48;;
30553;SDS011;17335;50.720;7.452;2023-12-14T09:35:46;19.52;;;7.95;;
30553;SDS011;17335;50.720;7.452;2023-12-14T09:38:12;23.75;;;8.25;;
30553;SDS011;17335;50.720;7.452;2023-12-14T09:44:28;20.33;;;7.97;;
30553;SDS011;17335;50.720;7.452;2023-12-14T09:46:55;23.05;;;8.63;;
30553;SDS011;17335;50.720;7.452;2023-12-14T09:49:31;25.80;;;9.80;;
30553;SDS011;17335;50.720;7.452;2023-12-14T09:51:59;29.48;;;11.45;;
30553;SDS011;17335;50.720;7.452;2023-12-14T09:54:26;22.30;;;8.68;;
30553;SDS011;17335;50.720;7.452;2023-12-14T10:19:35;29.90;;;9.80;;
30553;SDS011;17335;50.720;7.452;2023-12-14T10:22:02;33.35;;;10.00;;
30553;SDS011;17335;50.720;7.452;2023-12-14T10:24:28;28.30;;;9.20;;
30553;SDS011;17335;50.720;7.452;2023-12-14T10:26:59;30.08;;;10.23;;
30553;SDS011;17335;50.720;7.452;2023-12-14T10:29:26;26.02;;;10.27;;
30553;SDS011;17335;50.720;7.452;2023-12-14T10:31:52;39.40;;;12.30;;
30553;SDS011;17335;50.720;7.452;2023-12-14T10:34:20;31.92;;;10.73;;
30553;SDS011;17335;50.720;7.452;2023-12-14T10:36:46;35.45;;;10.88;;
30553;SDS011;17335;50.720;7.452;2023-12-14T10:39:14;27.45;;;9.10;;
30553;SDS011;17335;50.720;7.452;2023-12-14T10:41:43;29.67;;;9.88;;
30553;SDS011;17335;50.720;7.452;2023-12-14T10:44:26;22.23;;;7.28;;
30553;SDS011;17335;50.720;7.452;2023-12-14T10:47:14;21.85;;;8.05;;
30553;SDS011;17335;50.720;7.452;2023-12-14T10:49:42;24.33;;;8.80;;
30553;SDS011;17335;50.720;7.452;2023-12-14T10:52:10;21.98;;;7.03;;
30553;SDS011;17335;50.720;7.452;2023-12-14T10:54:38;28.38;;;8.43;;
30553;SDS011;17335;50.720;7.452;2023-12-14T10:57:07;22.63;;;7.47;;
30553;SDS011;17335;50.720;7.452;2023-12-14T10:59:35;26.50;;;8.57;;
30553;SDS011;17335;50.720;7.452;2023-12-14T11:02:06;21.83;;;7.88;;
30553;SDS011;17335;50.720;7.452;2023-12-14T11:10:23;17.33;;;6.05;;
30553;SDS011;17335;50.720;7.452;2023-12-14T11:12:57;15.68;;;6.50;;
30553;SDS011;17335;50.720;7.452;2023-12-14T11:15:35;18.30;;;6.28;;
30553;SDS011;17335;50.720;7.452;2023-12-14T11:20:50;14.73;;;5.40;;
30553;SDS011;17335;50.720;7.452;2023-12-14T11:23:26;18.38;;;6.32;;
30553;SDS011;17335;50.720;7.452;2023-12-14T11:26:02;19.02;;;6.45;;
30553;SDS011;17335;50.720;7.452;2023-12-14T11:28:32;20.40;;;6.22;;
30553;SDS011;17335;50.720;7.452;2023-12-14T11:31:00;17.65;;;7.40;;
30553;SDS011;17335;50.720;7.452;2023-12-14T11:33:28;18.10;;;6.20;;
30553;SDS011;17335;50.720;7.452;2023-12-14T11:35:55;20.60;;;6.75;;
30553;SDS011;17335;50.720;7.452;2023-12-14T11:38:24;18.27;;;6.05;;
30553;SDS011;17335;50.720;7.452;2023-12-14T11:40:51;22.38;;;7.65;;
30553;SDS011;17335;50.720;7.452;2023-12-14T11:43:18;24.63;;;8.00;;
30553;SDS011;17335;50.720;7.452;2023-12-14T11:45:48;23.38;;;7.85;;
30553;SDS011;17335;50.720;7.452;2023-12-14T11:48:15;22.52;;;7.07;;
30553;SDS011;17335;50.720;7.452;2023-12-14T11:50:43;21.60;;;7.28;;
30553;SDS011;17335;50.720;7.452;2023-12-14T11:53:10;22.35;;;7.90;;
30553;SDS011;17335;50.720;7.452;2023-12-14T11:55:38;22.65;;;8.55;;
30553;SDS011;17335;50.720;7.452;2023-12-14T11:58:06;18.98;;;7.28;;
30553;SDS011;17335;50.720;7.452;2023-12-14T12:00:33;29.65;;;8.55;;
30553;SDS011;17335;50.720;7.452;2023-12-14T12:03:09;20.25;;;8.10;;
30553;SDS011;17335;50.720;7.452;2023-12-14T12:08:09;19.80;;;7.47;;
30553;SDS011;17335;50.720;7.452;2023-12-14T12:10:37;21.05;;;7.93;;
30553;SDS011;17335;50.720;7.452;2023-12-14T12:13:06;19.85;;;6.22;;
30553;SDS011;17335;50.720;7.452;2023-12-14T12:15:34;20.95;;;7.18;;
30553;SDS011;17335;50.720;7.452;2023-12-14T12:18:14;16.33;;;6.75;;
30553;SDS011;17335;50.720;7.452;2023-12-14T12:20:43;17.00;;;5.10;;
30553;SDS011;17335;50.720;7.452;2023-12-14T12:23:09;17.77;;;6.00;;
30553;SDS011;17335;50.720;7.452;2023-12-14T12:25:36;13.02;;;5.75;;
30553;SDS011;17335;50.720;7.452;2023-12-14T12:28:04;18.92;;;5.93;;
30553;SDS011;17335;50.720;7.452;2023-12-14T12:30:30;18.70;;;6.55;;
30553;SDS011;17335;50.720;7.452;2023-12-14T12:32:57;15.35;;;5.57;;
30553;SDS011;17335;50.720;7.452;2023-12-14T12:35:25;16.02;;;5.30;;
30553;SDS011;17335;50.720;7.452;2023-12-14T12:37:52;18.92;;;6.43;;
30553;SDS011;17335;50.720;7.452;2023-12-14T12:40:22;20.33;;;6.78;;
30553;SDS011;17335;50.720;7.452;2023-12-14T12:42:49;17.83;;;6.00;;
30553;SDS011;17335;50.720;7.452;2023-12-14T12:45:16;23.27;;;7.38;;
30553;SDS011;17335;50.720;7.452;2023-12-14T12:47:48;16.20;;;6.90;;
30553;SDS011;17335;50.720;7.452;2023-12-14T12:50:15;21.60;;;6.78;;
30553;SDS011;17335;50.720;7.452;2023-12-14T12:52:42;16.33;;;6.70;;
30553;SDS011;17335;50.720;7.452;2023-12-14T12:55:09;22.65;;;8.05;;
30553;SDS011;17335;50.720;7.452;2023-12-14T12:57:36;20.00;;;7.68;;
30553;SDS011;17335;50.720;7.452;2023-12-14T13:00:03;23.77;;;8.23;;
30553;SDS011;17335;50.720;7.452;2023-12-14T13:02:31;26.58;;;8.43;;
30553;SDS011;17335;50.720;7.452;2023-12-14T13:04:57;22.55;;;7.78;;
30553;SDS011;17335;50.720;7.452;2023-12-14T13:07:24;22.10;;;7.40;;
30553;SDS011;17335;50.720;7.452;2023-12-14T13:09:51;26.30;;;8.90;;
30553;SDS011;17335;50.720;7.452;2023-12-14T13:12:18;30.88;;;10.32;;
30553;SDS011;17335;50.720;7.452;2023-12-14T13:14:44;24.13;;;8.95;;
30553;SDS011;17335;50.720;7.452;2023-12-14T13:17:11;25.73;;;10.15;;
30553;SDS011;17335;50.720;7.452;2023-12-14T13:19:37;29.45;;;10.32;;
30553;SDS011;17335;50.720;7.452;2023-12-14T13:22:04;29.70;;;11.35;;
30553;SDS011;17335;50.720;7.452;2023-12-14T13:24:31;31.85;;;10.82;;
30553;SDS011;17335;50.720;7.452;2023-12-14T13:26:57;27.17;;;10.32;;
30553;SDS011;17335;50.720;7.452;2023-12-14T13:29:24;33.63;;;10.43;;
30553;SDS011;17335;50.720;7.452;2023-12-14T13:31:51;34.72;;;12.50;;
30553;SDS011;17335;50.720;7.452;2023-12-14T13:34:17;31.02;;;11.10;;
30553;SDS011;17335;50.720;7.452;2023-12-14T13:36:44;31.30;;;11.40;;
30553;SDS011;17335;50.720;7.452;2023-12-14T13:39:10;31.02;;;12.43;;
30553;SDS011;17335;50.720;7.452;2023-12-14T13:41:37;35.53;;;11.43;;
30553;SDS011;17335;50.720;7.452;2023-12-14T13:44:16;33.50;;;11.82;;
30553;SDS011;17335;50.720;7.452;2023-12-14T13:46:43;51.92;;;13.52;;
30553;SDS011;17335;50.720;7.452;2023-12-14T13:49:09;42.60;;;13.88;;
30553;SDS011;17335;50.720;7.452;2023-12-14T13:51:36;39.50;;;12.68;;
30553;SDS011;17335;50.720;7.452;2023-12-14T13:54:03;39.60;;;12.13;;
30553;SDS011;17335;50.720;7.452;2023-12-14T13:56:30;34.58;;;10.55;;
30553;SDS011;17335;50.720;7.452;2023-12-14T13:58:57;34.60;;;11.20;;
30553;SDS011;17335;50.720;7.452;2023-12-14T14:01:24;40.22;;;11.65;;
30553;SDS011;17335;50.720;7.452;2023-12-14T14:03:51;36.75;;;13.07;;
30553;SDS011;17335;50.720;7.452;2023-12-14T14:09:58;32.15;;;11.40;;
30553;SDS011;17335;50.720;7.452;2023-12-14T14:12:25;31.17;;;12.80;;
30553;SDS011;17335;50.720;7.452;2023-12-14T14:14:52;31.90;;;10.57;;
30553;SDS011;17335;50.720;7.452;2023-12-14T14:17:18;29.70;;;11.13;;
30553;SDS011;17335;50.720;7.452;2023-12-14T14:19:45;37.15;;;11.88;;
30553;SDS011;17335;50.720;7.452;2023-12-14T14:22:11;32.88;;;11.63;;
30553;SDS011;17335;50.720;7.452;2023-12-14T14:24:38;35.15;;;11.38;;
30553;SDS011;17335;50.720;7.452;2023-12-14T14:27:05;35.35;;;11.50;;
30553;SDS011;17335;50.720;7.452;2023-12-14T14:29:32;32.95;;;11.10;;
30553;SDS011;17335;50.720;7.452;2023-12-14T14:31:59;31.05;;;10.95;;
30553;SDS011;17335;50.720;7.452;2023-12-14T14:34:25;33.30;;;11.57;;
30553;SDS011;17335;50.720;7.452;2023-12-14T14:36:52;32.60;;;11.20;;
30553;SDS011;17335;50.720;7.452;2023-12-14T14:39:18;26.42;;;11.43;;
30553;SDS011;17335;50.720;7.452;2023-12-14T14:41:45;32.17;;;11.50;;
30553;SDS011;17335;50.720;7.452;2023-12-14T14:44:12;32.78;;;11.27;;
30553;SDS011;17335;50.720;7.452;2023-12-14T14:46:38;30.52;;;11.52;;
30553;SDS011;17335;50.720;7.452;2023-12-14T14:49:05;34.72;;;12.32;;
30553;SDS011;17335;50.720;7.452;2023-12-14T14:51:32;29.60;;;11.07;;
30553;SDS011;17335;50.720;7.452;2023-12-14T14:53:58;32.40;;;12.18;;
30553;SDS011;17335;50.720;7.452;2023-12-14T14:56:26;30.25;;;12.98;;
30553;SDS011;17335;50.720;7.452;2023-12-14T14:58:52;33.17;;;11.57;;
30553;SDS011;17335;50.720;7.452;2023-12-14T15:01:19;38.22;;;11.57;;
30553;SDS011;17335;50.720;7.452;2023-12-14T15:03:45;32.72;;;12.48;;
30553;SDS011;17335;50.720;7.452;2023-12-14T15:06:12;35.47;;;11.40;;
30553;SDS011;17335;50.720;7.452;2023-12-14T15:08:38;33.25;;;12.73;;
30553;SDS011;17335;50.720;7.452;2023-12-14T15:11:05;36.88;;;12.93;;
30553;SDS011;17335;50.720;7.452;2023-12-14T15:13:36;32.45;;;12.52;;
30553;SDS011;17335;50.720;7.452;2023-12-14T15:16:03;38.58;;;14.35;;
30553;SDS011;17335;50.720;7.452;2023-12-14T15:18:29;35.35;;;13.50;;
30553;SDS011;17335;50.720;7.452;2023-12-14T15:20:56;34.13;;;12.70;;
30553;SDS011;17335;50.720;7.452;2023-12-14T15:23:23;36.60;;;11.93;;